Time,TemperatureF,DewpointF,PressureIn,WindDirection,WindDirectionDegrees,WindSpeedMPH,WindSpeedGustMPH,Humidity,HourlyPrecipIn,Conditions,Clouds,dailyrainin,SoftwareType,DateUTC
2013-11-05 00:00:00,58.6,41.0,29.45,North,359,0.0,-999.0,52,-99.99,,,0.00,weatherlink.com 1.10,2013-11-05 07:00:00,
2013-11-05 00:15:00,58.6,39.0,29.45,North,359,0.0,-999.0,49,-99.99,,,0.00,weatherlink.com 1.10,2013-11-05 07:15:00,
2013-11-05 00:30:00,57.8,38.0,29.45,North,359,0.0,-999.0,48,-99.99,,,0.00,weatherlink.com 1.10,2013-11-05 07:30:00,
2013-11-05 00:45:00,57.5,39.0,29.46,North,359,0.0,-999.0,51,-99.99,,,0.00,weatherlink.com 1.10,2013-11-05 07:45:00,
2013-11-05 01:00:00,57.5,39.0,29.46,North,359,0.0,-999.0,51,-99.99,,,0.00,weatherlink.com 1.10,2013-11-05 08:00:00,
2013-11-05 01:15:00,57.6,36.0,29.47,North,359,2.0,-999.0,44,-99.99,,,0.00,weatherlink.com 1.10,2013-11-05 08:15:00,
2013-11-05 01:30:00,61.3,30.0,29.48,North,359,6.0,-999.0,31,-99.99,,,0.00,weatherlink.com 1.10,2013-11-05 08:30:00,
2013-11-05 01:45:00,62.4,29.0,29.48,North,359,0.0,-999.0,28,-99.99,,,0.00,weatherlink.com 1.10,2013-11-05 08:45:00,
2013-11-05 02:00:00,62.4,30.0,29.48,North,357,2.0,-999.0,29,-99.99,,,0.00,weatherlink.com 1.10,2013-11-05 09:00:00,
2013-11-05 02:15:00,62.7,31.0,29.48,North,357,3.0,-999.0,30,-99.99,,,0.00,weatherlink.com 1.10,2013-11-05 09:15:00,
2013-11-05 02:30:00,62.7,30.0,29.49,North,359,0.0,-999.0,29,-99.99,,,0.00,weatherlink.com 1.10,2013-11-05 09:30:00,
2013-11-05 02:45:00,63.1,29.0,29.49,North,359,7.0,-999.0,28,-99.99,,,0.00,weatherlink.com 1.10,2013-11-05 09:45:00,
2013-11-05 03:00:00,63.7,29.0,29.49,WNW,299,3.0,-999.0,27,-99.99,,,0.00,weatherlink.com 1.10,2013-11-05 10:00:00,
2013-11-05 03:15:00,63.7,29.0,29.49,North,359,3.0,-999.0,27,-99.99,,,0.00,weatherlink.com 1.10,2013-11-05 10:15:00,
2013-11-05 03:30:00,63.5,30.0,29.49,North,359,0.0,-999.0,28,-99.99,,,0.00,weatherlink.com 1.10,2013-11-05 10:30:00,
2013-11-05 03:45:00,62.7,28.0,29.50,North,359,0.0,-999.0,27,-99.99,,,0.00,weatherlink.com 1.10,2013-11-05 10:45:00,
2013-11-05 04:00:00,62.6,28.0,29.51,North,357,0.0,-999.0,27,-99.99,,,0.00,weatherlink.com 1.10,2013-11-05 11:00:00,
2013-11-05 04:15:00,62.4,28.0,29.52,North,357,12.0,-999.0,27,-99.99,,,0.00,weatherlink.com 1.10,2013-11-05 11:15:00,
2013-11-05 04:30:00,62.4,29.0,29.52,NNW,330,7.0,-999.0,28,-99.99,,,0.00,weatherlink.com 1.10,2013-11-05 11:30:00,
2013-11-05 04:45:00,62.7,29.0,29.52,North,359,16.0,-999.0,28,-99.99,,,0.00,weatherlink.com 1.10,2013-11-05 11:45:00,
2013-11-05 05:00:00,62.6,28.0,29.53,North,359,6.0,-999.0,27,-99.99,,,0.00,weatherlink.com 1.10,2013-11-05 12:00:00,
2013-11-05 05:15:00,62.6,28.0,29.54,North,359,8.0,-999.0,27,-99.99,,,0.00,weatherlink.com 1.10,2013-11-05 12:15:00,
2013-11-05 05:30:00,62.3,28.0,29.54,North,359,8.0,-999.0,27,-99.99,,,0.00,weatherlink.com 1.10,2013-11-05 12:30:00,
2013-11-05 05:45:00,62.3,27.0,29.55,North,354,7.0,-999.0,26,-99.99,,,0.00,weatherlink.com 1.10,2013-11-05 12:45:00,
2013-11-05 06:00:00,62.1,28.0,29.56,North,353,12.0,-999.0,27,-99.99,,,0.00,weatherlink.com 1.10,2013-11-05 13:00:00,
2013-11-05 06:15:00,61.5,27.0,29.57,NNW,342,13.0,-999.0,27,-99.99,,,0.00,weatherlink.com 1.10,2013-11-05 13:15:00,
2013-11-05 06:30:00,61.3,27.0,29.58,North,359,7.0,-999.0,27,-99.99,,,0.00,weatherlink.com 1.10,2013-11-05 13:30:00,
2013-11-05 06:45:00,61.2,27.0,29.59,North,357,10.0,-999.0,27,-99.99,,,0.00,weatherlink.com 1.10,2013-11-05 13:45:00,
2013-11-05 07:00:00,61.0,26.0,29.59,North,357,11.0,-999.0,26,-99.99,,,0.00,weatherlink.com 1.10,2013-11-05 14:00:00,
2013-11-05 07:15:00,60.9,26.0,29.60,North,357,10.0,-999.0,26,-99.99,,,0.00,weatherlink.com 1.10,2013-11-05 14:15:00,
2013-11-05 07:30:00,60.9,26.0,29.61,North,359,16.0,-999.0,26,-99.99,,,0.00,weatherlink.com 1.10,2013-11-05 14:30:00,
2013-11-05 07:45:00,61.3,25.0,29.62,West,271,7.0,-999.0,25,-99.99,,,0.00,weatherlink.com 1.10,2013-11-05 14:45:00,
2013-11-05 08:00:00,61.5,25.0,29.62,North,359,9.0,-999.0,25,-99.99,,,0.00,weatherlink.com 1.10,2013-11-05 15:00:00,
2013-11-05 08:15:00,62.1,26.0,29.63,North,359,11.0,-999.0,25,-99.99,,,0.00,weatherlink.com 1.10,2013-11-05 15:15:00,
2013-11-05 08:30:00,63.1,26.0,29.64,North,357,7.0,-999.0,24,-99.99,,,0.00,weatherlink.com 1.10,2013-11-05 15:30:00,
2013-11-05 08:45:00,63.5,25.0,29.65,North,359,10.0,-999.0,23,-99.99,,,0.00,weatherlink.com 1.10,2013-11-05 15:45:00,
2013-11-05 09:00:00,64.2,25.0,29.66,North,359,13.0,-999.0,23,-99.99,,,0.00,weatherlink.com 1.10,2013-11-05 16:00:00,
2013-11-05 09:15:00,64.8,25.0,29.67,North,359,2.0,-999.0,22,-99.99,,,0.00,weatherlink.com 1.10,2013-11-05 16:15:00,
2013-11-05 09:31:00,65.8,26.0,29.68,North,359,8.0,-999.0,22,-99.99,,,0.00,weatherlink.com 1.10,2013-11-05 16:31:00,
2013-11-05 09:46:00,66.1,24.0,29.68,North,359,11.0,-999.0,20,-99.99,,,0.00,weatherlink.com 1.10,2013-11-05 16:46:00,
2013-11-05 10:01:00,67.1,25.0,29.68,NNW,339,14.0,-999.0,20,-99.99,,,0.00,weatherlink.com 1.10,2013-11-05 17:01:00,
2013-11-05 10:16:00,67.4,25.0,29.68,North,359,16.0,-999.0,20,-99.99,,,0.00,weatherlink.com 1.10,2013-11-05 17:16:00,
2013-11-05 10:31:00,68.1,24.0,29.68,North,359,10.0,-999.0,19,-99.99,,,0.00,weatherlink.com 1.10,2013-11-05 17:31:00,
2013-11-05 10:46:00,69.3,25.0,29.68,North,359,11.0,-999.0,19,-99.99,,,0.00,weatherlink.com 1.10,2013-11-05 17:46:00,
2013-11-05 11:01:00,69.4,25.0,29.68,North,356,17.0,-999.0,19,-99.99,,,0.00,weatherlink.com 1.10,2013-11-05 18:01:00,
2013-11-05 11:16:00,70.1,26.0,29.69,North,359,12.0,-999.0,19,-99.99,,,0.00,weatherlink.com 1.10,2013-11-05 18:16:00,
2013-11-05 11:31:00,70.6,25.0,29.68,North,357,12.0,-999.0,18,-99.99,,,0.00,weatherlink.com 1.10,2013-11-05 18:31:00,
2013-11-05 11:46:00,71.5,26.0,29.68,North,0,12.0,-999.0,18,-99.99,,,0.00,weatherlink.com 1.10,2013-11-05 18:46:00,
2013-11-05 12:01:00,71.6,24.0,29.68,North,359,6.0,-999.0,17,-99.99,,,0.00,weatherlink.com 1.10,2013-11-05 19:01:00,
2013-11-05 12:16:00,72.5,27.0,29.68,North,359,8.0,-999.0,18,-99.99,,,0.00,weatherlink.com 1.10,2013-11-05 19:16:00,
2013-11-05 12:31:00,72.3,25.0,29.68,North,359,11.0,-999.0,17,-99.99,,,0.00,weatherlink.com 1.10,2013-11-05 19:31:00,
2013-11-05 12:46:00,72.5,25.0,29.68,North,359,7.0,-999.0,17,-99.99,,,0.00,weatherlink.com 1.10,2013-11-05 19:46:00,
2013-11-05 13:01:00,72.8,25.0,29.67,North,359,10.0,-999.0,17,-99.99,,,0.00,weatherlink.com 1.10,2013-11-05 20:01:00,
2013-11-05 13:16:00,73.5,23.0,29.67,North,359,11.0,-999.0,15,-99.99,,,0.00,weatherlink.com 1.10,2013-11-05 20:16:00,
2013-11-05 13:31:00,73.7,23.0,29.67,ESE,117,7.0,-999.0,15,-99.99,,,0.00,weatherlink.com 1.10,2013-11-05 20:31:00,
2013-11-05 13:46:00,73.9,25.0,29.66,North,357,8.0,-999.0,16,-99.99,,,0.00,weatherlink.com 1.10,2013-11-05 20:46:00,
2013-11-05 14:01:00,73.7,23.0,29.67,North,359,11.0,-999.0,15,-99.99,,,0.00,weatherlink.com 1.10,2013-11-05 21:01:00,
2013-11-05 14:16:00,74.2,22.0,29.66,North,359,15.0,-999.0,14,-99.99,,,0.00,weatherlink.com 1.10,2013-11-05 21:16:00,
2013-11-05 14:31:00,73.9,20.0,29.66,North,359,13.0,-999.0,13,-99.99,,,0.00,weatherlink.com 1.10,2013-11-05 21:31:00,
2013-11-05 14:46:00,73.9,22.0,29.66,North,359,11.0,-999.0,14,-99.99,,,0.00,weatherlink.com 1.10,2013-11-05 21:46:00,
2013-11-05 15:01:00,73.9,20.0,29.67,North,359,13.0,-999.0,13,-99.99,,,0.00,weatherlink.com 1.10,2013-11-05 22:01:00,
2013-11-05 15:16:00,74.0,20.0,29.67,North,359,13.0,-999.0,13,-99.99,,,0.00,weatherlink.com 1.10,2013-11-05 22:16:00,
2013-11-05 15:31:00,73.9,20.0,29.67,North,359,16.0,-999.0,13,-99.99,,,0.00,weatherlink.com 1.10,2013-11-05 22:31:00,
2013-11-05 15:46:00,73.5,20.0,29.67,North,359,8.0,-999.0,13,-99.99,,,0.00,weatherlink.com 1.10,2013-11-05 22:46:00,
2013-11-05 16:01:00,73.3,19.0,29.67,North,359,5.0,-999.0,13,-99.99,,,0.00,weatherlink.com 1.10,2013-11-05 23:01:00,
2013-11-05 16:16:00,72.8,17.0,29.68,North,359,16.0,-999.0,12,-99.99,,,0.00,weatherlink.com 1.10,2013-11-05 23:16:00,
2013-11-05 16:31:00,72.8,19.0,29.68,North,359,5.0,-999.0,13,-99.99,,,0.00,weatherlink.com 1.10,2013-11-05 23:31:00,
2013-11-05 16:46:00,71.8,18.0,29.68,North,357,8.0,-999.0,13,-99.99,,,0.00,weatherlink.com 1.10,2013-11-05 23:46:00,
2013-11-05 17:01:00,71.3,18.0,29.69,North,357,12.0,-999.0,13,-99.99,,,0.00,weatherlink.com 1.10,2013-11-06 00:01:00,
2013-11-05 17:16:00,70.4,19.0,29.69,North,357,5.0,-999.0,14,-99.99,,,0.00,weatherlink.com 1.10,2013-11-06 00:16:00,
2013-11-05 17:31:00,69.4,18.0,29.69,North,357,3.0,-999.0,14,-99.99,,,0.00,weatherlink.com 1.10,2013-11-06 00:31:00,
2013-11-05 17:45:00,68.4,19.0,29.70,North,359,8.0,-999.0,15,-99.99,,,0.00,weatherlink.com 1.10,2013-11-06 00:45:00,
2013-11-05 18:01:00,67.4,20.0,29.70,North,359,3.0,-999.0,16,-99.99,,,0.00,weatherlink.com 1.10,2013-11-06 01:01:00,
2013-11-05 18:16:00,66.6,19.0,29.71,North,357,3.0,-999.0,16,-99.99,,,0.00,weatherlink.com 1.10,2013-11-06 01:16:00,
2013-11-05 18:31:00,65.8,18.0,29.71,North,359,0.0,-999.0,16,-99.99,,,0.00,weatherlink.com 1.10,2013-11-06 01:31:00,
2013-11-05 18:46:00,65.3,18.0,29.71,North,359,0.0,-999.0,16,-99.99,,,0.00,weatherlink.com 1.10,2013-11-06 01:46:00,
2013-11-05 19:01:00,65.5,18.0,29.72,SSW,200,0.0,-999.0,16,-99.99,,,0.00,weatherlink.com 1.10,2013-11-06 02:01:00,
2013-11-05 19:16:00,64.8,19.0,29.72,North,359,0.0,-999.0,17,-99.99,,,0.00,weatherlink.com 1.10,2013-11-06 02:16:00,
2013-11-05 19:31:00,63.5,19.0,29.73,North,359,0.0,-999.0,18,-99.99,,,0.00,weatherlink.com 1.10,2013-11-06 02:31:00,
2013-11-05 19:46:00,62.7,20.0,29.73,North,357,2.0,-999.0,19,-99.99,,,0.00,weatherlink.com 1.10,2013-11-06 02:46:00,
2013-11-05 20:01:00,62.4,19.0,29.73,North,357,0.0,-999.0,19,-99.99,,,0.00,weatherlink.com 1.10,2013-11-06 03:01:00,
2013-11-05 20:16:00,61.8,20.0,29.73,North,357,0.0,-999.0,20,-99.99,,,0.00,weatherlink.com 1.10,2013-11-06 03:16:00,
2013-11-05 20:31:00,61.5,20.0,29.74,North,359,0.0,-999.0,20,-99.99,,,0.00,weatherlink.com 1.10,2013-11-06 03:31:00,
2013-11-05 20:46:00,61.0,21.0,29.74,North,359,3.0,-999.0,21,-99.99,,,0.00,weatherlink.com 1.10,2013-11-06 03:46:00,
2013-11-05 21:01:00,60.7,22.0,29.74,North,359,4.0,-999.0,23,-99.99,,,0.00,weatherlink.com 1.10,2013-11-06 04:01:00,
2013-11-05 21:16:00,61.2,18.0,29.74,North,359,0.0,-999.0,19,-99.99,,,0.00,weatherlink.com 1.10,2013-11-06 04:16:00,
2013-11-05 21:31:00,61.0,17.0,29.75,North,359,0.0,-999.0,18,-99.99,,,0.00,weatherlink.com 1.10,2013-11-06 04:31:00,
2013-11-05 21:46:00,60.4,16.0,29.75,North,359,0.0,-999.0,18,-99.99,,,0.00,weatherlink.com 1.10,2013-11-06 04:46:00,
2013-11-05 22:01:00,60.2,16.0,29.75,North,359,0.0,-999.0,18,-99.99,,,0.00,weatherlink.com 1.10,2013-11-06 05:01:00,
2013-11-05 22:16:00,59.8,17.0,29.76,North,359,0.0,-999.0,19,-99.99,,,0.00,weatherlink.com 1.10,2013-11-06 05:16:00,
2013-11-05 22:31:00,59.3,18.0,29.76,North,357,0.0,-999.0,20,-99.99,,,0.00,weatherlink.com 1.10,2013-11-06 05:31:00,
2013-11-05 22:46:00,59.0,17.0,29.76,North,357,0.0,-999.0,19,-99.99,,,0.00,weatherlink.com 1.10,2013-11-06 05:46:00,
2013-11-05 23:01:00,58.3,16.0,29.77,North,359,0.0,-999.0,19,-99.99,,,0.00,weatherlink.com 1.10,2013-11-06 06:01:00,
2013-11-05 23:16:00,58.6,16.0,29.77,North,359,0.0,-999.0,19,-99.99,,,0.00,weatherlink.com 1.10,2013-11-06 06:16:00,
2013-11-05 23:31:00,57.8,16.0,29.77,North,359,0.0,-999.0,19,-99.99,,,0.00,weatherlink.com 1.10,2013-11-06 06:31:00,
2013-11-05 23:46:00,57.3,15.0,29.77,North,359,0.0,-999.0,19,-99.99,,,0.00,weatherlink.com 1.10,2013-11-06 06:46:00,